Time;durP1;ratioP1;P1;durP2;ratioP2;P2;SDS_P1;SDS_P2;PMS_P1;PMS_P2;Temp;Humidity;BMP_temperature;BMP_pressure;BME280_temperature;BME280_humidity;BME280_pressure;Samples;Min_cycle;Max_cycle;Signal;HPM_P1;HPM_P2
2024/02/02 00:00:02;;;;;;;24.48;10.20;;;;;;;3.83;83.07;100114.91;5051040;28;20611;-79
2024/02/02 00:02:28;;;;;;;35.10;11.85;;;;;;;4.04;81.48;100115.09;5030110;28;20402;-79
2024/02/02 00:04:53;;;;;;;30.63;10.65;;;;;;;4.08;82.41;100118.22;5049146;28;20025;-79
2024/02/02 00:07:18;;;;;;;32.70;11.43;;;;;;;4.04;81.95;100125.66;5051672;28;20489;-79
2024/02/02 00:09:45;;;;;;;27.05;10.38;;;;;;;4.17;82.15;100122.44;5047860;28;20092;-79
2024/02/02 00:12:11;;;;;;;26.05;10.75;;;;;;;4.12;81.89;100124.78;5050680;28;20041;-79
2024/02/02 00:14:40;;;;;;;29.35;11.13;;;;;;;4.13;81.97;100105.31;5048824;28;20025;-79
2024/02/02 00:17:05;;;;;;;30.88;10.48;;;;;;;4.22;81.14;100110.34;5047989;28;20246;-80
2024/02/02 00:19:31;;;;;;;25.95;10.90;;;;;;;4.11;81.60;100100.19;5048615;28;20556;-79
2024/02/02 00:21:57;;;;;;;27.88;10.27;;;;;;;4.11;82.88;100113.38;5051861;28;20111;-79
2024/02/02 00:24:22;;;;;;;36.35;10.55;;;;;;;4.07;82.27;100112.09;5053454;28;20029;-78
2024/02/02 00:26:48;;;;;;;30.67;11.10;;;;;;;4.12;82.04;100112.41;5038809;28;20025;-80
2024/02/02 00:29:14;;;;;;;33.65;11.70;;;;;;;4.05;82.50;100122.03;5052232;28;20033;-78
2024/02/02 00:31:41;;;;;;;29.38;11.25;;;;;;;4.05;82.23;100116.75;5049076;28;20049;-79
2024/02/02 00:34:07;;;;;;;41.47;13.32;;;;;;;3.94;82.92;100117.13;5058351;28;20063;-79
2024/02/02 00:36:32;;;;;;;27.25;10.30;;;;;;;4.17;82.21;100115.31;5051504;28;20119;-79
2024/02/02 00:38:58;;;;;;;31.30;10.45;;;;;;;4.17;82.01;100114.53;5049866;28;20120;-80
2024/02/02 00:41:23;;;;;;;27.55;10.88;;;;;;;4.23;82.11;100116.44;5033038;28;20029;-79
2024/02/02 00:43:49;;;;;;;29.92;10.55;;;;;;;4.10;82.15;100113.56;5051025;28;20044;-79
2024/02/02 00:46:14;;;;;;;30.80;10.82;;;;;;;4.05;83.16;100116.75;5038687;28;20070;-78
2024/02/02 00:48:40;;;;;;;28.10;10.88;;;;;;;4.14;82.38;100112.22;5059071;28;20025;-78
2024/02/02 00:51:05;;;;;;;32.83;11.60;;;;;;;4.14;82.51;100109.56;5047785;28;20466;-78
2024/02/02 00:53:30;;;;;;;24.63;11.32;;;;;;;4.13;81.91;100103.47;5054244;28;20037;-78
2024/02/02 00:55:56;;;;;;;27.25;10.80;;;;;;;4.21;82.12;100108.72;5054122;28;20028;-78
2024/02/02 00:58:21;;;;;;;42.78;13.05;;;;;;;4.12;82.49;100108.94;5033651;28;20060;-79
2024/02/02 01:00:46;;;;;;;22.00;11.20;;;;;;;4.16;82.15;100108.41;5051307;28;20031;-79
2024/02/02 01:03:12;;;;;;;19.27;10.60;;;;;;;4.10;82.02;100101.19;5051636;28;20032;-79
2024/02/02 01:05:37;;;;;;;34.65;12.07;;;;;;;4.17;82.69;100091.53;5050586;28;20033;-79
2024/02/02 01:08:04;;;;;;;30.63;12.35;;;;;;;4.12;82.10;100103.66;5054475;28;20025;-79
2024/02/02 01:10:29;;;;;;;34.88;13.02;;;;;;;3.91;82.67;100104.28;5047327;28;20701;-78
2024/02/02 01:12:55;;;;;;;35.38;13.18;;;;;;;4.02;82.65;100125.00;5053059;28;20052;-79
2024/02/02 01:15:21;;;;;;;32.33;13.00;;;;;;;3.98;82.96;100118.44;5052486;28;20032;-79
2024/02/02 01:17:48;;;;;;;35.42;14.57;;;;;;;3.98;82.15;100120.25;5053201;28;20132;-79
2024/02/02 01:20:13;;;;;;;40.97;13.43;;;;;;;3.99;82.66;100112.16;5050059;28;20498;-79
2024/02/02 01:22:40;;;;;;;34.25;14.15;;;;;;;4.11;82.06;100110.75;5050478;28;20041;-79
2024/02/02 01:25:07;;;;;;;31.60;13.38;;;;;;;3.94;81.70;100103.09;5053217;28;20634;-80
2024/02/02 01:27:33;;;;;;;45.03;16.92;;;;;;;3.94;82.57;100111.84;5053986;28;20080;-80
2024/02/02 01:29:58;;;;;;;36.10;14.63;;;;;;;3.98;82.19;100093.81;5032836;28;20033;-80
2024/02/02 01:32:24;;;;;;;29.80;15.07;;;;;;;4.13;82.06;100105.31;5039857;28;20025;-81
2024/02/02 01:34:49;;;;;;;39.35;15.73;;;;;;;4.07;81.70;100104.19;5056873;28;20037;-79
2024/02/02 01:37:15;;;;;;;33.17;15.55;;;;;;;4.10;82.02;100103.00;5053763;28;20060;-79
2024/02/02 01:39:40;;;;;;;35.30;14.35;;;;;;;4.05;81.65;100092.13;5047768;28;20036;-79
2024/02/02 01:42:06;;;;;;;45.60;17.10;;;;;;;4.08;81.34;100095.25;5063846;28;20068;-79
2024/02/02 01:44:31;;;;;;;40.90;16.88;;;;;;;4.06;82.13;100088.50;5051847;28;21058;-79
2024/02/02 01:46:57;;;;;;;33.50;15.63;;;;;;;4.19;81.28;100092.22;5048900;28;20067;-79
2024/02/02 01:49:22;;;;;;;32.85;14.55;;;;;;;4.16;82.37;100097.00;5036796;28;20036;-78
2024/02/02 01:51:47;;;;;;;45.28;15.00;;;;;;;4.17;81.57;100093.38;5052292;28;20116;-79
2024/02/02 01:54:13;;;;;;;45.50;15.68;;;;;;;4.23;81.06;100092.66;5047561;28;20036;-79
2024/02/02 01:56:38;;;;;;;33.67;13.82;;;;;;;4.27;81.47;100104.53;5047245;28;20060;-79
2024/02/02 01:59:04;;;;;;;33.55;16.85;;;;;;;4.12;81.16;100107.13;5052646;28;20502;-78
2024/02/02 02:01:31;;;;;;;32.47;15.55;;;;;;;4.14;80.82;100114.84;5032566;28;20051;-79
2024/02/02 02:03:56;;;;;;;33.75;14.57;;;;;;;4.24;81.81;100104.88;5046803;28;20047;-79
2024/02/02 02:06:22;;;;;;;35.28;13.50;;;;;;;4.02;81.63;100095.16;5049609;28;20392;-78
2024/02/02 02:08:47;;;;;;;41.53;14.35;;;;;;;4.12;81.50;100098.38;5052608;28;20143;-78
2024/02/02 02:11:13;;;;;;;36.25;14.52;;;;;;;4.01;81.82;100110.16;5046550;28;20409;-79
2024/02/02 02:13:38;;;;;;;37.53;14.20;;;;;;;4.03;81.94;100110.81;5047547;28;20039;-78
2024/02/02 02:16:04;;;;;;;30.55;14.40;;;;;;;4.12;81.88;100106.28;5049590;28;20086;-79
2024/02/02 02:18:30;;;;;;;24.48;12.98;;;;;;;4.10;81.37;100097.72;5047547;28;20048;-78
2024/02/02 02:20:56;;;;;;;31.92;14.27;;;;;;;4.15;81.08;100104.09;5062555;28;20040;-78
2024/02/02 02:23:21;;;;;;;36.60;14.98;;;;;;;4.18;81.50;100105.56;5051802;28;20056;-78
2024/02/02 02:25:46;;;;;;;30.63;13.73;;;;;;;4.27;80.91;100102.72;5048073;28;20416;-79
2024/02/02 02:28:12;;;;;;;36.10;13.52;;;;;;;4.26;80.62;100105.53;5046553;28;20036;-79
2024/02/02 02:30:38;;;;;;;37.80;14.73;;;;;;;4.24;80.39;100102.22;5051251;28;20584;-79
2024/02/02 02:33:05;;;;;;;33.45;13.30;;;;;;;4.25;80.79;100107.34;5048833;28;20557;-79
2024/02/02 02:35:30;;;;;;;34.65;13.65;;;;;;;4.15;81.54;100108.59;5050303;28;20029;-79
2024/02/02 02:37:55;;;;;;;31.15;14.02;;;;;;;4.12;81.48;100101.00;5047081;28;20074;-79
2024/02/02 02:40:21;;;;;;;31.40;14.38;;;;;;;4.10;81.12;100082.69;5053489;28;20060;-79
2024/02/02 02:42:48;;;;;;;26.83;13.25;;;;;;;4.01;81.82;100088.22;5049506;28;20045;-79
2024/02/02 02:45:13;;;;;;;34.00;13.82;;;;;;;3.99;81.39;100084.91;5056113;28;20029;-79
2024/02/02 02:47:38;;;;;;;30.50;13.48;;;;;;;3.99;82.08;100084.91;5051750;28;20036;-79
2024/02/02 02:50:04;;;;;;;29.52;13.95;;;;;;;3.96;81.33;100064.97;5053857;28;20020;-79
2024/02/02 02:52:30;;;;;;;36.92;13.65;;;;;;;3.98;81.16;100072.69;5052397;28;20044;-80
2024/02/02 02:54:55;;;;;;;40.75;13.88;;;;;;;3.98;81.48;100051.56;5054438;28;20055;-79
2024/02/02 02:57:20;;;;;;;32.45;13.50;;;;;;;4.07;81.42;100050.50;5056074;28;20028;-79
2024/02/02 02:59:46;;;;;;;31.20;14.43;;;;;;;4.05;80.97;100058.63;5056170;28;20046;-80
2024/02/02 03:02:11;;;;;;;42.08;15.10;;;;;;;3.93;81.35;100053.94;5036398;28;20043;-80
2024/02/02 03:04:37;;;;;;;32.95;13.65;;;;;;;4.04;81.80;100045.59;5051809;28;20057;-80
2024/02/02 03:07:04;;;;;;;33.88;13.35;;;;;;;4.15;80.75;100053.09;5050304;28;20500;-78
2024/02/02 03:09:30;;;;;;;33.65;13.32;;;;;;;4.03;81.02;100042.13;5052045;28;20022;-78
2024/02/02 03:11:56;;;;;;;30.45;13.10;;;;;;;4.05;81.24;100039.31;5048605;28;20041;-79
2024/02/02 03:14:21;;;;;;;32.00;13.63;;;;;;;4.00;81.34;100039.03;5050374;28;20064;-79
2024/02/02 03:16:47;;;;;;;31.08;12.80;;;;;;;4.10;81.23;100039.59;5051179;28;20029;-79
2024/02/02 03:19:12;;;;;;;33.08;14.95;;;;;;;4.11;81.26;100054.44;5051546;28;20741;-80
2024/02/02 03:21:38;;;;;;;31.77;13.13;;;;;;;4.03;81.47;100050.06;5053297;28;20024;-79
2024/02/02 03:24:05;;;;;;;23.73;11.90;;;;;;;4.03;81.08;100044.78;5055786;28;20085;-79
2024/02/02 03:26:30;;;;;;;26.05;11.32;;;;;;;4.01;81.15;100040.66;5049303;28;20131;-79
2024/02/02 03:28:56;;;;;;;26.98;12.13;;;;;;;3.91;81.53;100019.75;5051733;28;20084;-79
2024/02/02 03:31:22;;;;;;;27.45;12.05;;;;;;;3.95;81.33;100038.72;5023695;28;20401;-79
2024/02/02 03:33:47;;;;;;;31.27;12.75;;;;;;;3.92;81.92;100024.06;5048164;28;20041;-79
2024/02/02 03:36:13;;;;;;;32.80;11.50;;;;;;;3.93;81.49;100038.09;5034399;28;20495;-79
2024/02/02 03:38:38;;;;;;;35.08;11.98;;;;;;;3.92;81.99;100028.50;5049790;28;21942;-80
2024/02/02 03:41:04;;;;;;;31.15;12.35;;;;;;;3.97;81.30;100039.38;5050194;28;20508;-79
2024/02/02 03:43:29;;;;;;;25.10;11.38;;;;;;;3.95;81.67;100036.94;5032619;28;20041;-80
2024/02/02 03:45:54;;;;;;;28.80;13.23;;;;;;;3.96;81.29;100045.66;5038538;28;20116;-79
2024/02/02 03:48:20;;;;;;;32.35;13.15;;;;;;;3.97;81.68;100042.84;5055394;28;20443;-79
2024/02/02 03:50:45;;;;;;;29.40;12.55;;;;;;;3.92;81.11;100045.19;5034808;28;20035;-81
2024/02/02 03:53:11;;;;;;;28.35;12.30;;;;;;;3.96;81.40;100041.19;5031879;28;20040;-81
2024/02/02 03:55:36;;;;;;;34.03;12.38;;;;;;;3.98;81.10;100055.03;5048327;28;20148;-81
2024/02/02 03:58:01;;;;;;;26.55;12.18;;;;;;;3.96;81.23;100050.94;5055923;28;20098;-80
2024/02/02 04:00:27;;;;;;;27.30;11.75;;;;;;;3.94;81.52;100050.28;5052056;28;20033;-80
2024/02/02 04:02:52;;;;;;;33.10;11.27;;;;;;;3.91;81.69;100040.88;5045385;28;20116;-78
2024/02/02 04:05:18;;;;;;;29.33;12.20;;;;;;;3.89;81.55;100058.72;5031276;28;20028;-79
2024/02/02 04:07:43;;;;;;;26.73;10.77;;;;;;;3.87;81.72;100038.81;5054629;28;20120;-79
2024/02/02 04:10:09;;;;;;;28.45;12.82;;;;;;;3.83;81.43;100043.59;5045936;28;20021;-79
2024/02/02 04:12:34;;;;;;;32.38;14.13;;;;;;;3.80;81.69;100041.28;5030475;28;20039;-78
2024/02/02 04:15:00;;;;;;;28.98;12.65;;;;;;;3.83;82.24;100043.59;5030660;28;20428;-79
2024/02/02 04:17:25;;;;;;;37.95;12.75;;;;;;;3.83;82.34;100046.25;5047831;28;20034;-78
2024/02/02 04:19:51;;;;;;;21.95;11.68;;;;;;;3.76;81.73;100040.84;5049331;28;20063;-79
2024/02/02 04:22:17;;;;;;;34.25;12.70;;;;;;;3.86;82.00;100050.34;5029354;28;20059;-78
2024/02/02 04:24:43;;;;;;;34.83;11.82;;;;;;;3.82;81.81;100056.97;5048197;28;20031;-79
2024/02/02 04:27:09;;;;;;;33.28;13.18;;;;;;;3.74;81.86;100037.56;5035137;28;20037;-79
2024/02/02 04:29:35;;;;;;;34.28;13.25;;;;;;;3.76;81.76;100051.41;5013257;28;20034;-79
2024/02/02 04:32:00;;;;;;;31.55;13.20;;;;;;;3.83;82.19;100062.09;5047175;28;20040;-79
2024/02/02 04:34:25;;;;;;;45.88;14.32;;;;;;;3.77;82.21;100060.97;5046969;28;20040;-80
2024/02/02 04:36:51;;;;;;;33.67;12.98;;;;;;;3.84;81.65;100061.09;5050723;28;20180;-79
2024/02/02 04:39:16;;;;;;;38.47;13.65;;;;;;;3.90;81.91;100067.47;5050863;28;20495;-78
2024/02/02 04:41:42;;;;;;;34.17;12.55;;;;;;;3.87;81.43;100060.72;5052670;28;20028;-79
2024/02/02 04:44:07;;;;;;;25.05;10.57;;;;;;;3.87;81.67;100060.72;5035151;28;20094;-78
2024/02/02 04:46:32;;;;;;;33.15;13.27;;;;;;;3.79;81.52;100048.41;5049129;28;20082;-79
2024/02/02 04:48:58;;;;;;;43.33;11.85;;;;;;;3.82;81.73;100043.78;5036394;28;20044;-79
2024/02/02 04:51:23;;;;;;;25.98;12.23;;;;;;;3.71;81.92;100032.59;5039322;28;20093;-79
2024/02/02 04:53:49;;;;;;;24.58;12.50;;;;;;;3.73;82.26;100043.03;5037905;28;20028;-80
2024/02/02 04:56:14;;;;;;;27.55;12.30;;;;;;;3.86;82.33;100043.25;5052602;28;20068;-80
2024/02/02 04:58:40;;;;;;;25.80;12.32;;;;;;;3.88;82.38;100051.00;5037132;28;20027;-80
2024/02/02 05:01:05;;;;;;;24.55;11.85;;;;;;;3.92;81.84;100049.63;5055573;28;20037;-80
2024/02/02 05:03:31;;;;;;;27.88;12.48;;;;;;;3.83;81.61;100038.31;5055787;28;20032;-80
2024/02/02 05:05:57;;;;;;;28.48;12.10;;;;;;;3.88;82.27;100038.63;5054950;28;20032;-79
2024/02/02 05:08:23;;;;;;;37.60;13.00;;;;;;;3.83;82.25;100029.56;5039785;28;20038;-79
2024/02/02 05:10:49;;;;;;;41.45;12.93;;;;;;;3.90;82.06;100018.13;5038130;28;20103;-80
2024/02/02 05:13:14;;;;;;;29.08;12.38;;;;;;;4.00;81.79;100023.19;5037431;28;20442;-79
2024/02/02 05:15:40;;;;;;;29.05;12.65;;;;;;;3.87;81.18;100025.59;5052396;28;20036;-78
2024/02/02 05:18:06;;;;;;;25.52;11.55;;;;;;;3.92;81.47;99999.47;5054609;28;20068;-79
2024/02/02 05:20:32;;;;;;;29.95;12.55;;;;;;;4.03;81.43;100010.44;5059060;28;20025;-79
2024/02/02 05:22:58;;;;;;;29.52;11.25;;;;;;;3.91;81.66;99996.00;5048774;28;20026;-79
2024/02/02 05:25:23;;;;;;;31.30;12.27;;;;;;;3.90;81.69;99997.00;5039568;28;20036;-79
2024/02/02 05:27:48;;;;;;;29.08;12.85;;;;;;;3.94;82.25;99994.81;5049424;28;20036;-79
2024/02/02 05:30:14;;;;;;;30.42;11.82;;;;;;;3.98;81.72;99993.47;5046816;28;20478;-79
2024/02/02 05:32:40;;;;;;;34.53;11.68;;;;;;;3.92;81.20;99999.47;5051446;28;20112;-79
2024/02/02 05:35:06;;;;;;;23.55;10.77;;;;;;;3.99;81.63;99998.59;5048535;28;20056;-79
2024/02/02 05:37:33;;;;;;;28.35;12.23;;;;;;;4.08;81.57;99984.31;5054396;28;20033;-79
2024/02/02 05:39:59;;;;;;;31.48;11.80;;;;;;;4.07;81.50;99992.41;5051636;28;20044;-79
2024/02/02 05:42:24;;;;;;;22.23;11.02;;;;;;;4.01;81.84;99987.84;5048150;28;20048;-79
2024/02/02 05:44:49;;;;;;;20.77;10.73;;;;;;;3.94;81.60;99974.53;5051004;28;20086;-79
2024/02/02 05:47:15;;;;;;;21.90;9.88;;;;;;;3.92;81.64;99992.38;5032727;28;20515;-79
2024/02/02 05:49:40;;;;;;;30.83;11.77;;;;;;;3.80;81.16;99977.94;5034251;28;20466;-79
2024/02/02 05:52:09;;;;;;;26.92;10.75;;;;;;;3.92;82.36;99976.53;5052099;28;20029;-80
2024/02/02 05:54:35;;;;;;;29.80;10.63;;;;;;;4.03;81.46;99975.28;5039044;28;20029;-80
2024/02/02 05:57:01;;;;;;;29.67;12.45;;;;;;;3.96;81.36;99963.78;5054233;28;20035;-79
2024/02/02 05:59:26;;;;;;;26.27;10.55;;;;;;;4.00;81.47;99976.44;5060355;28;20391;-80
2024/02/02 06:01:52;;;;;;;21.13;10.98;;;;;;;4.02;81.36;99973.66;5046544;28;20060;-80
2024/02/02 06:04:17;;;;;;;23.98;10.85;;;;;;;3.93;81.46;99972.06;5046441;28;20029;-79
2024/02/02 06:06:42;;;;;;;22.20;10.60;;;;;;;3.94;81.41;99968.41;5045511;28;20132;-79
2024/02/02 06:09:11;;;;;;;21.77;9.10;;;;;;;3.92;81.67;99963.31;5049649;28;20044;-79
2024/02/02 06:11:36;;;;;;;26.45;11.35;;;;;;;3.87;81.49;99970.16;5049492;28;20029;-79
2024/02/02 06:14:01;;;;;;;32.38;9.93;;;;;;;3.98;81.30;99978.44;5049129;28;20398;-79
2024/02/02 06:16:27;;;;;;;23.63;10.65;;;;;;;3.92;82.04;99965.97;5048188;28;20059;-79
2024/02/02 06:18:54;;;;;;;27.95;9.82;;;;;;;3.85;82.37;99966.84;5050768;28;20033;-78
2024/02/02 06:21:19;;;;;;;33.10;10.95;;;;;;;3.88;82.14;99955.94;5045204;28;20028;-79
2024/02/02 06:23:44;;;;;;;24.33;10.65;;;;;;;3.82;82.31;99946.91;5050440;28;20077;-79
2024/02/02 06:26:10;;;;;;;38.00;11.93;;;;;;;3.72;82.77;99954.25;5049472;28;20036;-79
2024/02/02 06:28:35;;;;;;;32.78;12.38;;;;;;;3.79;81.71;99958.66;5044705;28;20389;-79
2024/02/02 06:31:00;;;;;;;28.13;10.85;;;;;;;3.88;82.36;99955.94;5005870;28;20087;-78
2024/02/02 06:33:26;;;;;;;29.45;13.02;;;;;;;3.94;81.75;99942.81;5046168;28;20053;-79
2024/02/02 06:35:51;;;;;;;30.83;13.10;;;;;;;3.92;81.68;99954.56;5051328;28;20040;-79
2024/02/02 06:38:17;;;;;;;36.92;11.80;;;;;;;3.98;82.43;99967.88;5051700;28;20063;-78
2024/02/02 06:40:42;;;;;;;31.88;12.10;;;;;;;3.97;82.52;99974.19;5041261;28;20039;-77
2024/02/02 06:43:08;;;;;;;32.53;12.95;;;;;;;4.00;81.61;99965.88;5044535;28;20483;-78
2024/02/02 06:45:34;;;;;;;37.63;13.98;;;;;;;3.97;81.85;99946.94;5024295;28;20025;-78
2024/02/02 06:47:59;;;;;;;32.15;14.55;;;;;;;4.01;82.34;99962.25;5042355;28;20052;-78
2024/02/02 06:50:25;;;;;;;32.65;11.27;;;;;;;3.95;82.04;99968.25;5043573;28;20107;-77
2024/02/02 06:52:51;;;;;;;30.10;12.77;;;;;;;4.03;82.45;99964.69;5048836;28;20032;-80
2024/02/02 06:55:16;;;;;;;32.45;11.80;;;;;;;4.06;81.92;99956.44;5042985;28;20493;-79
2024/02/02 06:57:42;;;;;;;30.65;13.75;;;;;;;3.90;82.22;99940.72;5047870;28;20025;-78
2024/02/02 07:00:13;;;;;;;26.88;10.93;;;;;;;4.06;82.00;99924.72;5023910;28;20036;-78
2024/02/02 07:02:39;;;;;;;25.42;11.75;;;;;;;3.98;82.50;99916.88;5042131;28;20025;-81
2024/02/02 07:05:04;;;;;;;23.88;12.15;;;;;;;4.01;82.37;99929.72;5046201;28;20074;-80
2024/02/02 07:07:30;;;;;;;36.58;11.70;;;;;;;4.03;82.95;99947.03;5002475;28;20426;-79
2024/02/02 07:09:56;;;;;;;32.53;11.52;;;;;;;4.03;82.57;99944.41;5037425;28;20024;-79
2024/02/02 07:12:55;;;;;;;32.00;12.93;;;;;;;3.98;83.09;99925.63;5053394;28;20478;-78
2024/02/02 07:15:22;;;;;;;23.05;11.43;;;;;;;4.00;82.65;99920.19;5027987;28;20140;-78
2024/02/02 07:17:49;;;;;;;29.83;11.95;;;;;;;3.94;83.33;99924.34;5048285;28;20028;-78
2024/02/02 07:20:33;;;;;;;32.10;12.10;;;;;;;3.84;82.89;99915.88;5050275;28;20029;-79
2024/02/02 07:23:03;;;;;;;26.52;12.13;;;;;;;3.92;82.91;99914.94;5045154;28;20102;-79
2024/02/02 07:25:37;;;;;;;32.53;12.73;;;;;;;3.88;83.58;99918.97;5051125;28;20029;-79
2024/02/02 07:28:04;;;;;;;37.75;13.27;;;;;;;3.89;83.22;99921.41;5041989;28;20028;-78
2024/02/02 07:30:55;;;;;;;29.92;11.63;;;;;;;3.87;83.90;99923.41;5044052;28;20037;-78
2024/02/02 07:33:38;;;;;;;35.95;11.98;;;;;;;3.88;83.75;99925.06;5045459;28;20059;-77
2024/02/02 07:36:05;;;;;;;27.65;12.02;;;;;;;3.88;83.80;99911.88;5045609;28;20033;-77
2024/02/02 07:38:30;;;;;;;33.17;11.75;;;;;;;3.93;83.47;99900.75;5015835;28;20024;-77
2024/02/02 07:41:06;;;;;;;31.38;12.25;;;;;;;3.92;82.95;99901.75;5044721;28;20059;-79
2024/02/02 07:43:33;;;;;;;28.38;11.32;;;;;;;3.94;82.88;99905.84;5059385;28;20033;-79
2024/02/02 07:46:03;;;;;;;28.92;12.85;;;;;;;3.93;83.62;99906.03;5072825;28;20049;-78
2024/02/02 07:48:29;;;;;;;33.30;12.70;;;;;;;3.89;83.43;99894.22;5062382;28;20480;-78
2024/02/02 07:50:54;;;;;;;39.45;12.60;;;;;;;3.96;83.02;99898.56;5053067;28;20045;-78
2024/02/02 07:53:20;;;;;;;27.08;12.00;;;;;;;4.03;82.71;99888.09;5054582;28;20044;-80
2024/02/02 07:55:45;;;;;;;27.55;13.13;;;;;;;4.02;82.88;99895.19;5046396;28;20035;-77
2024/02/02 07:58:11;;;;;;;31.60;14.40;;;;;;;4.00;82.71;99894.56;5047135;28;20041;-78
2024/02/02 08:00:36;;;;;;;30.10;12.38;;;;;;;3.95;83.88;99883.75;5051910;28;20043;-78
2024/02/02 08:03:02;;;;;;;23.40;11.90;;;;;;;3.86;82.96;99884.00;5045875;28;20029;-77
2024/02/02 08:05:27;;;;;;;25.05;11.68;;;;;;;3.79;84.23;99878.59;5042707;28;20037;-78
2024/02/02 08:07:53;;;;;;;29.83;13.40;;;;;;;4.00;83.45;99878.72;5046121;28;20119;-78
2024/02/02 08:10:18;;;;;;;38.80;12.35;;;;;;;3.98;83.02;99878.09;5028081;28;20135;-79
2024/02/02 08:12:44;;;;;;;27.63;13.13;;;;;;;4.03;83.36;99872.25;5049088;28;20115;-78
2024/02/02 08:15:09;;;;;;;25.23;12.00;;;;;;;4.03;82.13;99864.34;5050242;28;20037;-78
2024/02/02 08:17:34;;;;;;;24.75;12.05;;;;;;;4.20;82.46;99866.63;5052970;28;20029;-79
2024/02/02 08:20:00;;;;;;;31.73;12.15;;;;;;;4.06;82.27;99845.50;5055873;28;20489;-78
2024/02/02 08:22:25;;;;;;;26.85;12.27;;;;;;;4.18;82.41;99855.41;5049388;28;20032;-77
2024/02/02 08:24:51;;;;;;;32.25;13.05;;;;;;;4.08;82.17;99851.41;5050860;28;20025;-77
2024/02/02 08:27:19;;;;;;;26.60;12.18;;;;;;;4.07;82.46;99855.88;5053049;28;20097;-77
2024/02/02 08:29:45;;;;;;;30.25;12.13;;;;;;;4.11;82.45;99853.66;5053578;28;20035;-77
2024/02/02 08:32:11;;;;;;;30.52;10.82;;;;;;;3.93;82.63;99837.38;5052626;28;20394;-81
2024/02/02 08:34:37;;;;;;;30.52;12.80;;;;;;;4.07;83.01;99836.53;5054962;28;20040;-78
2024/02/02 08:37:03;;;;;;;25.27;10.80;;;;;;;4.18;82.83;99831.63;5052878;28;20040;-78
2024/02/02 08:39:33;;;;;;;31.50;10.02;;;;;;;4.04;83.28;99834.28;5059391;28;20197;-80
2024/02/02 08:42:00;;;;;;;28.90;10.70;;;;;;;4.01;82.42;99822.25;5036668;28;20060;-78
2024/02/02 08:44:30;;;;;;;27.40;9.65;;;;;;;3.92;82.53;99819.88;5021001;28;20032;-78
2024/02/02 08:46:57;;;;;;;18.58;8.57;;;;;;;3.95;82.79;99830.94;5054938;28;20021;-78
2024/02/02 08:49:55;;;;;;;24.40;8.43;;;;;;;3.90;83.12;99809.50;5020406;28;20482;-77
2024/02/02 08:52:26;;;;;;;24.20;9.90;;;;;;;3.85;83.39;99806.59;5051734;28;20469;-77
2024/02/02 08:54:52;;;;;;;21.67;8.30;;;;;;;3.78;83.15;99795.09;5052979;28;20124;-77
2024/02/02 08:57:29;;;;;;;19.55;8.90;;;;;;;3.87;82.61;99817.78;5051384;28;20492;-77
2024/02/02 08:59:55;;;;;;;27.67;10.93;;;;;;;3.76;82.33;99811.13;5048707;28;20112;-78
2024/02/02 09:02:36;;;;;;;27.80;9.20;;;;;;;3.87;82.84;99812.50;5050590;28;20586;-77
2024/02/02 09:05:10;;;;;;;29.88;8.93;;;;;;;3.94;82.47;99812.59;5050834;28;20025;-77
2024/02/02 09:07:35;;;;;;;21.58;7.80;;;;;;;3.96;82.97;99802.66;5050891;28;20033;-78
2024/02/02 09:10:19;;;;;;;22.95;8.05;;;;;;;3.95;83.07;99798.41;5034138;28;20040;-77
2024/02/02 09:12:48;;;;;;;24.80;10.00;;;;;;;3.96;82.26;99797.38;5041940;28;20086;-77
2024/02/02 09:15:18;;;;;;;18.77;6.47;;;;;;;4.00;82.22;99796.84;5052527;28;20569;-78
2024/02/02 09:17:43;;;;;;;20.65;7.50;;;;;;;3.99;83.23;99794.38;5036310;28;20041;-77
2024/02/02 09:20:23;;;;;;;16.02;7.07;;;;;;;4.12;81.99;99782.19;5051291;28;20048;-77
2024/02/02 09:22:48;;;;;;;14.45;6.57;;;;;;;4.13;82.14;99791.72;5051139;28;20086;-78
2024/02/02 09:25:25;;;;;;;26.13;7.40;;;;;;;4.11;81.15;99788.44;5051820;28;20069;-77
2024/02/02 09:27:50;;;;;;;20.15;7.30;;;;;;;4.22;82.12;99790.63;5047898;28;20060;-77
2024/02/02 09:30:21;;;;;;;31.55;7.28;;;;;;;4.11;82.01;99783.16;5051686;28;20370;-77
2024/02/02 09:32:47;;;;;;;26.08;7.85;;;;;;;4.15;81.17;99778.34;5046293;28;20028;-77
2024/02/02 09:35:48;;;;;;;23.35;7.43;;;;;;;4.20;81.49;99792.63;5049227;28;20032;-77
2024/02/02 09:38:14;;;;;;;23.90;7.07;;;;;;;4.28;81.68;99795.16;5048615;28;20028;-77
2024/02/02 09:41:00;;;;;;;17.98;7.07;;;;;;;4.40;80.93;99784.94;5047345;28;20393;-77
2024/02/02 09:43:34;;;;;;;;;;;;;;;4.44;80.45;99794.13;5048988;28;20025;-78
2024/02/02 09:46:07;;;;;;;27.23;6.97;;;;;;;4.47;81.24;99776.09;5048868;28;20358;-77
2024/02/02 09:48:48;;;;;;;27.27;6.60;;;;;;;4.42;80.72;99782.94;5046324;28;20025;-78
2024/02/02 09:51:38;;;;;;;22.45;7.50;;;;;;;4.49;80.46;99779.38;5043107;28;20037;-79
2024/02/02 09:54:03;;;;;;;17.83;6.45;;;;;;;4.48;80.50;99785.66;5049864;28;20455;-78
2024/02/02 09:56:49;;;;;;;17.05;5.75;;;;;;;4.57;80.07;99789.00;5048365;28;20111;-79
2024/02/02 09:59:27;;;;;;;16.75;6.53;;;;;;;4.52;79.83;99776.34;5049932;28;20028;-79
2024/02/02 10:02:15;;;;;;;22.45;7.07;;;;;;;4.53;80.56;99788.56;5063764;22;20078;-80
2024/02/02 10:04:58;;;;;;;15.77;5.80;;;;;;;4.51;80.16;99781.81;5032140;28;20040;-80
2024/02/02 10:07:43;;;;;;;19.10;7.05;;;;;;;4.63;80.46;99785.59;5085053;28;20028;-80
2024/02/02 10:10:34;;;;;;;21.35;6.93;;;;;;;4.69;79.90;99776.94;5084362;28;20031;-81
2024/02/02 10:13:05;;;;;;;21.58;7.78;;;;;;;4.59;80.22;99780.91;5077769;28;20032;-81
2024/02/02 10:15:46;;;;;;;22.60;6.90;;;;;;;4.63;79.48;99774.22;5068126;28;20200;-81
2024/02/02 10:18:36;;;;;;;23.92;5.93;;;;;;;4.65;79.49;99775.69;5071817;28;20476;-81
2024/02/02 10:21:13;;;;;;;22.15;8.02;;;;;;;4.60;79.89;99771.94;5064092;28;20039;-80
2024/02/02 10:23:54;;;;;;;16.88;6.35;;;;;;;4.76;79.30;99772.50;5069137;28;20030;-79
2024/02/02 10:26:30;;;;;;;26.70;7.10;;;;;;;4.76;78.78;99772.50;5068346;28;20099;-80
2024/02/02 10:29:25;;;;;;;18.83;5.97;;;;;;;4.81;79.40;99766.66;5072038;28;20036;-80
2024/02/02 10:31:56;;;;;;;16.42;5.57;;;;;;;4.87;78.54;99747.41;5048461;28;20111;-80
2024/02/02 10:34:40;;;;;;;18.05;6.57;;;;;;;4.88;78.48;99755.16;5074587;28;20479;-80
2024/02/02 10:37:37;;;;;;;17.23;5.63;;;;;;;4.76;78.59;99724.13;5063873;28;20034;-80
2024/02/02 10:40:10;;;;;;;34.70;7.55;;;;;;;4.82;78.44;99745.34;5049754;28;20036;-80
2024/02/02 10:42:48;;;;;;;14.85;5.53;;;;;;;4.87;78.58;99732.34;5070291;28;20028;-81
2024/02/02 10:45:46;;;;;;;21.42;6.25;;;;;;;4.96;77.76;99738.31;5066439;28;20020;-80
2024/02/02 10:48:57;;;;;;;26.45;7.03;;;;;;;4.95;77.68;99724.28;5052298;28;20073;-80
2024/02/02 10:51:39;;;;;;;23.05;6.30;;;;;;;4.96;77.58;99727.75;4989707;28;20431;-80
2024/02/02 10:54:29;;;;;;;19.00;6.93;;;;;;;4.99;78.60;99724.72;4980196;28;20053;-79
2024/02/02 10:56:57;;;;;;;20.75;6.95;;;;;;;5.01;77.41;99718.22;5042455;28;20036;-81
2024/02/02 11:00:01;;;;;;;15.80;7.25;;;;;;;5.13;77.70;99727.28;5042628;28;20040;-80
2024/02/02 11:02:36;;;;;;;23.13;5.85;;;;;;;5.15;77.65;99732.41;5044364;28;20036;-80
2024/02/02 11:05:28;;;;;;;20.55;6.82;;;;;;;5.14;76.67;99712.22;5049344;28;20556;-80
2024/02/02 11:08:00;;;;;;;19.38;6.85;;;;;;;5.24;76.97;99718.00;5051557;28;20030;-81
2024/02/02 11:10:34;;;;;;;21.00;5.90;;;;;;;5.33;76.42;99720.31;5048735;28;20054;-80
2024/02/02 11:13:08;;;;;;;18.65;7.30;;;;;;;5.36;76.99;99718.28;5034098;28;20484;-81
2024/02/02 11:16:06;;;;;;;22.98;6.07;;;;;;;5.45;76.71;99717.94;5071540;28;20028;-81
2024/02/02 11:18:48;;;;;;;16.13;6.50;;;;;;;5.40;76.07;99701.81;5071877;28;20032;-81
2024/02/02 11:21:17;;;;;;;20.92;6.15;;;;;;;5.53;75.85;99706.38;5056167;28;20118;-80
2024/02/02 11:24:06;;;;;;;15.45;6.88;;;;;;;5.53;76.18;99707.19;5067210;28;20145;-80
2024/02/02 11:26:47;;;;;;;27.92;8.50;;;;;;;5.61;75.77;99695.63;5052866;28;20029;-81
2024/02/02 11:29:18;;;;;;;17.75;6.63;;;;;;;5.69;75.88;99698.13;5066759;28;20025;-82
2024/02/02 11:31:53;;;;;;;23.92;6.65;;;;;;;5.76;75.63;99689.19;5059168;28;20543;-81